createdAt,value
2022-08-26T00:00:06.961Z,3.00
2022-08-26T00:03:37.512Z,3.50
2022-08-26T00:10:40.239Z,2.70
2022-08-26T00:17:15.702Z,3.10
2022-08-26T00:20:28.940Z,3.30
2022-08-26T00:23:51.388Z,3.30
2022-08-26T00:27:19.340Z,3.40
2022-08-26T00:30:37.878Z,3.10
2022-08-26T00:34:12.947Z,3.10
2022-08-26T00:37:24.050Z,3.20
2022-08-26T00:44:29.022Z,3.10
2022-08-26T00:47:31.910Z,3.00
2022-08-26T00:51:03.369Z,3.50
2022-08-26T00:54:20.868Z,3.20
2022-08-26T00:57:38.932Z,3.00
2022-08-26T01:00:56.516Z,3.00
2022-08-26T01:03:27.951Z,2.90
2022-08-26T01:06:01.250Z,3.00
2022-08-26T01:08:31.350Z,2.90
2022-08-26T01:11:01.598Z,3.30
2022-08-26T01:13:33.437Z,3.00
2022-08-26T01:16:06.720Z,3.00
2022-08-26T01:18:36.531Z,3.30
2022-08-26T01:21:22.243Z,2.90
2022-08-26T01:23:57.479Z,3.40
2022-08-26T01:26:33.562Z,2.70
2022-08-26T01:29:06.062Z,3.60
2022-08-26T01:31:43.623Z,3.80
2022-08-26T01:34:32.791Z,3.30
2022-08-26T01:37:15.482Z,3.40
2022-08-26T01:40:14.166Z,3.30
2022-08-26T01:42:46.593Z,3.40
2022-08-26T01:45:19.880Z,2.90
2022-08-26T01:47:56.868Z,3.10
2022-08-26T01:50:31.126Z,3.30
2022-08-26T01:53:06.388Z,3.50
2022-08-26T01:55:43.370Z,3.40
2022-08-26T02:01:04.955Z,3.40
2022-08-26T02:03:51.064Z,4.50
2022-08-26T02:06:22.142Z,3.40
2022-08-26T02:08:58.132Z,3.50
2022-08-26T02:11:26.738Z,3.30
2022-08-26T02:14:02.618Z,2.70
2022-08-26T02:16:39.723Z,3.20
2022-08-26T02:19:17.530Z,3.00
2022-08-26T02:21:51.248Z,3.30
2022-08-26T02:24:27.302Z,2.90
2022-08-26T02:27:02.659Z,2.90
2022-08-26T02:29:38.614Z,3.00
2022-08-26T02:32:10.377Z,2.80
2022-08-26T02:34:42.961Z,2.80
2022-08-26T02:37:17.615Z,3.40
2022-08-26T02:39:46.171Z,3.50
2022-08-26T02:42:18.502Z,3.00
2022-08-26T02:44:53.517Z,2.70
2022-08-26T02:47:28.926Z,3.60
2022-08-26T02:50:28.921Z,3.40
2022-08-26T02:57:40.921Z,3.00
2022-08-26T03:00:59.922Z,3.20
2022-08-26T03:07:53.267Z,3.20
2022-08-26T03:18:15.282Z,3.30
2022-08-26T03:34:08.398Z,2.90
2022-08-26T03:44:27.917Z,3.10
2022-08-26T03:47:57.894Z,2.80
2022-08-26T03:51:10.962Z,2.70
2022-08-26T03:54:23.932Z,3.50
2022-08-26T04:04:38.919Z,3.30
2022-08-26T04:35:06.245Z,2.80
2022-08-26T04:42:41.893Z,3.10
2022-08-26T04:55:12.955Z,2.90
2022-08-26T04:58:26.391Z,2.60
2022-08-26T05:01:49.066Z,3.00
2022-08-26T05:12:23.945Z,2.60
2022-08-26T05:25:35.956Z,2.80
2022-08-26T05:28:21.946Z,3.30
2022-08-26T05:40:55.974Z,3.30
2022-08-26T05:50:13.941Z,2.90
2022-08-26T06:14:36.268Z,3.70
2022-08-26T06:18:13.202Z,2.60
2022-08-26T06:27:32.568Z,2.60
2022-08-26T06:34:02.246Z,2.70
2022-08-26T06:37:16.455Z,3.20
2022-08-26T06:47:33.933Z,3.00
2022-08-26T06:50:19.780Z,2.70
2022-08-26T06:52:50.804Z,2.90
2022-08-26T06:55:46.512Z,2.50
2022-08-26T06:58:17.090Z,2.80
2022-08-26T07:00:47.413Z,2.70
2022-08-26T07:03:15.603Z,2.90
2022-08-26T07:05:46.189Z,2.70
2022-08-26T07:08:16.451Z,2.90
2022-08-26T07:10:45.150Z,4.00
2022-08-26T07:13:13.154Z,3.40
2022-08-26T07:15:42.231Z,2.80
2022-08-26T07:18:10.238Z,2.80
2022-08-26T07:20:42.324Z,2.40
2022-08-26T07:23:11.773Z,3.80
2022-08-26T07:25:42.234Z,3.20
2022-08-26T07:28:12.411Z,2.90
2022-08-26T07:30:41.178Z,3.70
2022-08-26T07:33:09.864Z,3.50
2022-08-26T07:35:39.366Z,3.80
2022-08-26T07:38:08.414Z,3.70
2022-08-26T07:40:37.760Z,2.80
2022-08-26T07:43:09.703Z,3.00
2022-08-26T07:45:38.274Z,3.50
2022-08-26T07:48:06.826Z,3.80
2022-08-26T07:50:49.432Z,3.60
2022-08-26T07:53:19.555Z,3.40
2022-08-26T07:55:48.638Z,3.30
2022-08-26T07:58:19.046Z,3.10
2022-08-26T08:00:47.680Z,3.40
2022-08-26T08:03:16.260Z,3.10
2022-08-26T08:05:46.415Z,3.20
2022-08-26T08:08:26.699Z,2.90
2022-08-26T08:10:57.160Z,3.50
2022-08-26T08:13:25.399Z,3.00
2022-08-26T08:15:53.401Z,3.40
2022-08-26T08:18:23.238Z,3.10
2022-08-26T08:20:59.243Z,3.20
2022-08-26T08:23:33.134Z,2.90
2022-08-26T08:26:08.404Z,3.20
2022-08-26T08:28:37.896Z,3.30
2022-08-26T08:31:06.927Z,2.80
2022-08-26T08:33:35.383Z,3.00
2022-08-26T08:36:06.153Z,2.90
2022-08-26T08:38:37.382Z,2.70
2022-08-26T08:41:05.683Z,2.40
2022-08-26T08:43:42.329Z,2.90
2022-08-26T08:46:14.325Z,2.80
2022-08-26T08:48:48.333Z,2.80
2022-08-26T08:51:29.801Z,2.70
2022-08-26T08:54:00.112Z,3.30
2022-08-26T08:56:39.157Z,3.10
2022-08-26T08:59:24.098Z,3.00
2022-08-26T09:02:26.608Z,4.30
2022-08-26T09:05:15.322Z,3.60
2022-08-26T09:07:48.265Z,2.50
2022-08-26T09:10:39.795Z,4.00
2022-08-26T09:13:13.707Z,2.70
2022-08-26T09:16:21.704Z,2.60
2022-08-26T09:19:24.010Z,3.10
2022-08-26T09:21:56.923Z,2.50
2022-08-26T09:24:28.563Z,3.10
2022-08-26T09:26:59.234Z,2.20
2022-08-26T09:29:32.876Z,3.00
2022-08-26T09:32:22.069Z,3.50
2022-08-26T09:35:23.853Z,2.60
2022-08-26T09:37:53.013Z,2.10
2022-08-26T09:40:28.338Z,2.90
2022-08-26T09:43:22.862Z,2.80
2022-08-26T09:46:15.920Z,2.50
2022-08-26T09:48:44.019Z,1.80
2022-08-26T09:51:30.400Z,1.90
2022-08-26T09:54:02.065Z,2.60
2022-08-26T09:56:34.657Z,2.00
2022-08-26T09:59:04.630Z,2.10
2022-08-26T10:01:41.867Z,2.20
2022-08-26T10:04:20.652Z,2.40
2022-08-26T10:07:29.245Z,1.90
2022-08-26T10:09:59.947Z,1.60
2022-08-26T10:12:28.267Z,2.00
2022-08-26T10:15:01.996Z,2.60
2022-08-26T10:18:01.179Z,2.30
2022-08-26T10:20:38.325Z,2.60
2022-08-26T10:23:15.441Z,2.30
2022-08-26T10:26:02.071Z,1.90
2022-08-26T10:28:39.404Z,1.80
2022-08-26T10:31:40.933Z,2.10
2022-08-26T10:34:12.541Z,2.60
2022-08-26T10:37:14.151Z,1.80
2022-08-26T10:39:57.312Z,2.10
2022-08-26T10:42:35.551Z,1.90
2022-08-26T10:45:11.979Z,2.00
2022-08-26T10:48:01.386Z,2.50
2022-08-26T10:53:26.527Z,2.10
2022-08-26T10:56:15.703Z,2.40
2022-08-26T10:59:04.413Z,2.20
2022-08-26T11:01:43.379Z,2.00
2022-08-26T11:04:23.770Z,2.30
2022-08-26T11:07:22.625Z,3.00
2022-08-26T11:09:51.148Z,1.90
2022-08-26T11:12:53.420Z,2.00
2022-08-26T11:16:02.474Z,1.80
2022-08-26T11:18:41.193Z,1.70
2022-08-26T11:21:44.179Z,1.80
2022-08-26T11:24:44.081Z,1.50
2022-08-26T11:27:52.049Z,2.10
2022-08-26T11:30:42.706Z,2.00
2022-08-26T11:33:51.328Z,2.00
2022-08-26T11:36:40.135Z,1.80
2022-08-26T11:39:29.548Z,1.90
2022-08-26T11:42:25.363Z,1.90
2022-08-26T11:45:04.799Z,2.30
2022-08-26T11:47:34.042Z,2.30
2022-08-26T11:50:17.419Z,2.40
2022-08-26T11:52:56.479Z,1.90
2022-08-26T11:55:25.463Z,1.70
2022-08-26T11:57:57.638Z,2.10
2022-08-26T12:00:33.886Z,1.90
2022-08-26T12:03:42.642Z,2.10
2022-08-26T12:13:28.605Z,2.30
2022-08-26T12:18:38.561Z,2.60
2022-08-26T12:21:15.016Z,1.90
2022-08-26T12:23:47.190Z,2.40
2022-08-26T12:26:34.731Z,1.90
2022-08-26T12:29:26.921Z,1.60
2022-08-26T12:32:13.019Z,1.80
2022-08-26T12:34:44.562Z,1.90
2022-08-26T12:37:15.448Z,2.20
2022-08-26T12:39:45.049Z,1.90
2022-08-26T12:42:43.055Z,2.00
2022-08-26T12:45:11.159Z,1.90
2022-08-26T12:47:44.222Z,1.80
2022-08-26T12:50:31.799Z,1.90
2022-08-26T12:53:05.203Z,1.80
2022-08-26T12:55:44.309Z,1.50
2022-08-26T12:58:33.963Z,2.10
2022-08-26T13:01:22.567Z,1.80
2022-08-26T13:03:53.812Z,2.00
2022-08-26T13:06:32.138Z,1.70
2022-08-26T13:09:40.035Z,1.90
2022-08-26T13:12:14.289Z,2.30
2022-08-26T13:14:47.456Z,2.20
2022-08-26T13:17:16.960Z,2.10
2022-08-26T13:20:04.178Z,2.00
2022-08-26T13:22:35.107Z,2.10
2022-08-26T13:25:06.246Z,1.70
2022-08-26T13:27:36.577Z,1.90
2022-08-26T13:30:05.879Z,2.00
2022-08-26T13:32:35.574Z,2.20
2022-08-26T13:35:06.134Z,1.70
2022-08-26T13:38:22.318Z,1.60
2022-08-26T13:51:20.915Z,1.50
2022-08-26T13:54:33.631Z,1.40
2022-08-26T13:58:06.603Z,1.90
2022-08-26T14:02:01.776Z,1.50
2022-08-26T14:04:58.870Z,1.70
2022-08-26T14:11:16.371Z,1.70
2022-08-26T14:32:50.755Z,1.80
2022-08-26T14:39:36.438Z,2.30
2022-08-26T14:43:57.174Z,1.80
2022-08-26T15:07:44.694Z,1.50
2022-08-26T15:11:06.633Z,1.60
2022-08-26T15:14:35.485Z,1.80
2022-08-26T15:18:08.265Z,2.00
2022-08-26T15:27:34.446Z,1.90
2022-08-26T15:30:54.639Z,1.90
2022-08-26T15:37:46.993Z,1.90
2022-08-26T15:40:17.030Z,1.90
2022-08-26T15:43:27.695Z,1.70
2022-08-26T15:45:58.872Z,1.80
2022-08-26T15:49:02.600Z,2.10
2022-08-26T15:55:12.305Z,1.80
2022-08-26T15:58:25.108Z,1.90
2022-08-26T16:01:00.301Z,2.10
2022-08-26T16:04:03.878Z,1.50
2022-08-26T16:07:01.710Z,2.10
2022-08-26T16:10:21.592Z,2.30
2022-08-26T16:13:03.502Z,1.90
2022-08-26T16:18:23.618Z,1.70
2022-08-26T16:21:08.796Z,2.30
2022-08-26T16:23:45.191Z,2.00
2022-08-26T16:26:24.084Z,2.00
2022-08-26T16:28:54.554Z,2.20
2022-08-26T16:31:22.971Z,2.20
2022-08-26T16:33:55.012Z,2.10
2022-08-26T16:37:13.999Z,2.20
2022-08-26T16:39:44.957Z,2.70
2022-08-26T16:42:13.787Z,2.30
2022-08-26T16:44:45.444Z,1.90
2022-08-26T16:47:16.068Z,1.80
2022-08-26T16:49:45.256Z,1.80
2022-08-26T16:52:14.114Z,2.10
2022-08-26T16:54:42.596Z,2.10
2022-08-26T16:57:51.757Z,2.10
2022-08-26T17:00:41.669Z,2.00
2022-08-26T17:03:53.287Z,1.70
2022-08-26T17:06:49.724Z,2.00
2022-08-26T17:10:18.676Z,2.20
2022-08-26T17:13:28.952Z,2.00
2022-08-26T17:16:07.558Z,2.10
2022-08-26T17:18:37.333Z,2.10
2022-08-26T17:21:08.700Z,2.00
2022-08-26T17:23:37.811Z,2.60
2022-08-26T17:26:06.031Z,2.60
2022-08-26T17:28:35.102Z,2.30
2022-08-26T17:31:05.164Z,2.40
2022-08-26T17:33:39.505Z,2.10
2022-08-26T17:36:09.534Z,2.60
2022-08-26T17:38:38.440Z,2.50
2022-08-26T17:41:14.848Z,2.30
2022-08-26T17:43:42.857Z,2.80
2022-08-26T17:46:12.930Z,2.50
2022-08-26T17:48:41.776Z,2.10
2022-08-26T17:51:17.208Z,2.80
2022-08-26T17:54:12.230Z,2.30
2022-08-26T17:56:40.312Z,2.70
2022-08-26T17:59:16.942Z,2.40
2022-08-26T18:01:48.001Z,2.40
2022-08-26T18:04:36.545Z,2.30
2022-08-26T18:07:09.044Z,2.50
2022-08-26T18:09:37.106Z,2.50
2022-08-26T18:12:15.887Z,1.90
2022-08-26T18:14:47.670Z,2.20
2022-08-26T18:17:19.416Z,2.20
2022-08-26T18:19:48.013Z,2.20
2022-08-26T18:22:19.621Z,2.30
2022-08-26T18:24:57.373Z,2.00
2022-08-26T18:27:27.590Z,2.10
2022-08-26T18:30:03.230Z,2.40
2022-08-26T18:33:17.953Z,2.10
2022-08-26T18:46:41.918Z,2.10
2022-08-26T18:50:39.883Z,2.00
2022-08-26T18:57:59.876Z,2.10
2022-08-26T19:11:31.452Z,2.50
2022-08-26T19:14:29.847Z,2.50
2022-08-26T19:17:45.922Z,2.30
2022-08-26T19:28:25.873Z,2.60
2022-08-26T19:35:14.895Z,2.50
2022-08-26T19:38:24.897Z,2.10
2022-08-26T19:48:22.921Z,2.80
2022-08-26T19:51:40.234Z,2.40
2022-08-26T19:54:09.781Z,2.30
2022-08-26T19:56:37.822Z,2.60
2022-08-26T19:59:43.228Z,2.30
2022-08-26T20:03:08.186Z,2.60
2022-08-26T20:07:02.163Z,3.10
2022-08-26T20:10:25.048Z,2.90
2022-08-26T20:13:51.527Z,2.90
2022-08-26T20:17:11.306Z,3.20
2022-08-26T20:20:34.256Z,2.20
2022-08-26T20:27:47.244Z,3.20
2022-08-26T20:31:04.256Z,3.00
2022-08-26T20:34:25.285Z,2.50
2022-08-26T20:37:49.270Z,2.90
2022-08-26T20:41:13.230Z,3.10
2022-08-26T20:44:33.228Z,2.60
2022-08-26T20:51:50.307Z,2.70
2022-08-26T20:55:16.324Z,3.00
2022-08-26T20:58:41.544Z,2.30
2022-08-26T21:02:06.211Z,2.70
2022-08-26T21:05:27.300Z,2.60
2022-08-26T21:08:44.383Z,2.60
2022-08-26T21:12:33.659Z,2.60
2022-08-26T21:19:11.948Z,2.80
2022-08-26T21:22:34.712Z,3.00
2022-08-26T21:25:46.955Z,2.80
2022-08-26T21:28:58.857Z,2.40
2022-08-26T21:32:12.497Z,2.90
2022-08-26T21:35:43.908Z,2.50
2022-08-26T21:38:56.936Z,2.60
2022-08-26T21:42:09.939Z,3.20
2022-08-26T21:52:07.359Z,3.00
2022-08-26T21:55:19.926Z,2.80
2022-08-26T21:58:32.966Z,2.90
2022-08-26T22:01:45.932Z,3.10
2022-08-26T22:05:02.003Z,2.80
2022-08-26T22:11:43.917Z,2.80
2022-08-26T22:18:19.926Z,2.80
2022-08-26T22:21:31.928Z,2.50
2022-08-26T22:24:43.917Z,2.90
2022-08-26T22:31:16.979Z,3.00
2022-08-26T22:34:25.875Z,2.70
2022-08-26T22:37:42.945Z,2.80
2022-08-26T22:40:57.944Z,2.60
2022-08-26T22:44:03.932Z,2.90
2022-08-26T22:50:38.986Z,3.10
2022-08-26T22:53:51.905Z,3.20
2022-08-26T22:57:32.659Z,2.80
2022-08-26T23:00:51.021Z,3.20
2022-08-26T23:10:49.944Z,3.10
2022-08-26T23:13:55.952Z,3.00
2022-08-26T23:17:10.027Z,2.90
2022-08-26T23:20:23.897Z,3.00
2022-08-26T23:26:58.980Z,3.10
2022-08-26T23:36:39.478Z,3.00
2022-08-26T23:43:01.952Z,2.60
2022-08-26T23:46:35.345Z,2.80
2022-08-26T23:52:56.909Z,2.70
